»·PEaware :: N240D KJFK-KTEB

N240D :: KJFK-KTEB

FLIGHT INFORMATION

Flight Status: Arrived
Operator: Privately registered:
United States
More flights under this callsign
Pilot: Johannes M. (35343)
Aircraft: MOONEY M-20K/M ENCORE BRAVO
(M20T)
More flights by this aircraft type
Origin: KJFK Kennedy Intl
United States
Destination: KTEB Teterboro
United States
More flights between these airports :: More routes between these airports
Route: JFK5 V16 DIXIE V276 RBV V249 SBJ
File this flight plan on PilotEdge
Remarks:
Altitude:
(Current/Filed)
6,000ft
Speed:
(Current/Filed)
180kts
Departed: 10-May-23 05:51 AM
Arrived: 10-May-23 06:52 AM
Distance/Time
Traveled:
18nm/1:00
Distance/Time
To Go:
Arrived

Flight Plot

Page will automatically refresh every two minutes.

Flight plan parsing failed; only flown route is shown


Map Options




Map Legend


Flown Route
Filed Route
Departure Airport
Arrival Airport
Navaid (VOR, NDB)
Fix

Horizontal Profiles

Position Reports

Time Latitude Longitude Heading Altitude Ground
Speed
10-May-23 04:29 40.653308 -73.819740 0 16ft 0kts
10-May-23 04:30 40.653308 -73.819740 0 16ft 0kts
10-May-23 04:31 40.653308 -73.819739 0 16ft 0kts
10-May-23 04:32 40.653308 -73.819739 118 16ft 0kts
10-May-23 04:33 40.653308 -73.819739 118 16ft 0kts
10-May-23 04:34 40.653308 -73.819739 118 16ft 0kts
10-May-23 04:35 40.653308 -73.819739 118 16ft 0kts
10-May-23 04:36 40.653308 -73.819738 118 16ft 0kts
10-May-23 04:37 40.653308 -73.819738 118 16ft 0kts
10-May-23 04:38 40.653308 -73.819738 118 16ft 0kts
10-May-23 04:39 40.653308 -73.819738 118 16ft 0kts
10-May-23 04:40 40.653307 -73.819738 118 16ft 0kts
10-May-23 04:41 40.652364 -73.819510 122 16ft 5kts
10-May-23 04:42 40.650680 -73.815841 121 16ft 11kts
10-May-23 04:43 40.649626 -73.813778 166 16ft 8kts
10-May-23 04:44 40.648814 -73.814447 210 16ft 0kts
10-May-23 04:45 40.648813 -73.814447 210 16ft 0kts
10-May-23 04:46 40.648813 -73.814447 210 16ft 0kts
10-May-23 04:47 40.648813 -73.814447 210 16ft 0kts
10-May-23 04:48 40.648812 -73.814447 210 16ft 0kts
10-May-23 04:49 40.648812 -73.814448 210 16ft 0kts
10-May-23 04:50 40.648812 -73.814448 210 16ft 0kts
10-May-23 04:51 40.648812 -73.814448 210 16ft 0kts
10-May-23 04:52 40.648811 -73.814448 210 16ft 0kts
10-May-23 04:53 40.648811 -73.814449 210 16ft 0kts
10-May-23 04:54 40.648811 -73.814449 210 16ft 0kts
10-May-23 04:55 40.648810 -73.814449 210 16ft 0kts
10-May-23 04:56 40.648810 -73.814449 210 16ft 0kts
10-May-23 04:57 40.648810 -73.814449 210 16ft 0kts
10-May-23 04:58 40.648810 -73.814450 210 16ft 0kts
10-May-23 04:59 40.648809 -73.814450 210 16ft 0kts
10-May-23 05:00 40.648809 -73.814450 210 16ft 0kts
10-May-23 05:01 40.648809 -73.814450 210 16ft 0kts
10-May-23 05:02 40.648809 -73.814450 210 16ft 0kts
10-May-23 05:03 40.648808 -73.814451 210 16ft 0kts
10-May-23 05:04 40.648808 -73.814451 211 16ft 0kts
10-May-23 05:05 40.648808 -73.814451 211 16ft 0kts
10-May-23 05:06 40.648808 -73.814451 211 16ft 0kts
10-May-23 05:07 40.648807 -73.814452 211 16ft 0kts
10-May-23 05:08 40.648807 -73.814452 211 16ft 0kts
10-May-23 05:09 40.648807 -73.814452 211 16ft 0kts
10-May-23 05:10 40.648806 -73.814452 211 16ft 0kts
10-May-23 05:11 40.648806 -73.814452 211 16ft 0kts
10-May-23 05:12 40.648806 -73.814453 211 16ft 0kts
10-May-23 05:13 40.648806 -73.814453 211 16ft 0kts
10-May-23 05:14 40.648805 -73.814453 211 16ft 0kts
10-May-23 05:15 40.648805 -73.814453 211 16ft 0kts
10-May-23 05:16 40.648805 -73.814453 211 16ft 0kts
10-May-23 05:17 40.648805 -73.814454 211 16ft 0kts
10-May-23 05:18 40.648804 -73.814454 211 16ft 0kts
10-May-23 05:19 40.648804 -73.814454 211 16ft 0kts
10-May-23 05:20 40.648804 -73.814454 211 16ft 0kts
10-May-23 05:21 40.648804 -73.814454 211 16ft 0kts
10-May-23 05:22 40.648803 -73.814455 211 16ft 0kts
10-May-23 05:23 40.648803 -73.814455 211 16ft 0kts
10-May-23 05:24 40.648803 -73.814455 211 16ft 0kts
10-May-23 05:25 40.648802 -73.814455 211 16ft 0kts
10-May-23 05:26 40.648802 -73.814456 211 16ft 0kts
10-May-23 05:27 40.648802 -73.814456 211 16ft 0kts
10-May-23 05:29 40.648802 -73.814456 211 16ft 0kts
10-May-23 05:30 40.648801 -73.814456 211 16ft 0kts
10-May-23 05:31 40.648801 -73.814457 211 16ft 0kts
10-May-23 05:32 40.648801 -73.814457 211 16ft 0kts
10-May-23 05:33 40.648800 -73.814457 211 16ft 0kts
10-May-23 05:34 40.648800 -73.814457 211 16ft 0kts
10-May-23 05:35 40.648800 -73.814458 211 16ft 0kts
10-May-23 05:36 40.648799 -73.814458 211 16ft 0kts
10-May-23 05:37 40.648799 -73.814458 211 16ft 0kts
10-May-23 05:38 40.648799 -73.814458 211 16ft 0kts
10-May-23 05:39 40.648799 -73.814459 211 16ft 0kts
10-May-23 05:40 40.648798 -73.814459 211 16ft 0kts
10-May-23 05:41 40.648798 -73.814459 211 16ft 0kts
10-May-23 05:42 40.648798 -73.814459 211 16ft 0kts
10-May-23 05:43 40.648797 -73.814459 211 16ft 0kts
10-May-23 05:44 40.648797 -73.814460 211 16ft 0kts
10-May-23 05:45 40.648797 -73.814460 211 16ft 0kts
10-May-23 05:46 40.648797 -73.814460 211 16ft 0kts
10-May-23 05:47 40.648796 -73.814460 211 16ft 0kts
10-May-23 05:48 40.648403 -73.814748 207 16ft 0kts
10-May-23 05:49 40.648403 -73.814748 207 16ft 0kts
10-May-23 05:50 40.648403 -73.814748 207 16ft 0kts
10-May-23 05:51 40.642817 -73.804404 120 177ft 87kts
10-May-23 05:52 40.626983 -73.769769 125 1406ft 118kts
10-May-23 05:53 40.600797 -73.743418 147 2815ft 124kts
10-May-23 05:54 40.572700 -73.743128 235 4247ft 124kts
10-May-23 05:54 40.556197 -73.776623 237 5034ft 152kts
10-May-23 05:55 40.530791 -73.828560 237 5006ft 178kts
10-May-23 05:56 40.497099 -73.875644 208 5006ft 181kts
10-May-23 05:58 40.442494 -73.890198 158 5009ft 180kts
10-May-23 05:59 40.396209 -73.883664 226 5012ft 179kts
10-May-23 05:59 40.372564 -73.928769 237 5003ft 181kts
10-May-23 06:00 40.338806 -73.976543 217 5004ft 181kts
10-May-23 06:01 40.298014 -74.015222 212 5003ft 181kts
10-May-23 06:02 40.284553 -74.069786 286 5003ft 180kts
10-May-23 06:03 40.299407 -74.132092 287 4501ft 177kts
10-May-23 06:04 40.314106 -74.193119 287 3999ft 174kts
10-May-23 06:05 40.328641 -74.253381 287 3499ft 173kts
10-May-23 06:06 40.343051 -74.313040 287 3029ft 169kts
10-May-23 06:07 40.356682 -74.369396 287 3001ft 158kts
10-May-23 06:08 40.394643 -74.387417 357 3004ft 157kts
10-May-23 06:09 40.438508 -74.389840 357 3002ft 157kts
10-May-23 06:10 40.481498 -74.375814 22 2598ft 167kts
10-May-23 06:11 40.525247 -74.352960 19 2041ft 168kts
10-May-23 06:12 40.567891 -74.333036 19 2000ft 158kts
10-May-23 06:13 40.609286 -74.315437 17 2002ft 155kts
10-May-23 06:14 40.651327 -74.317178 347 2003ft 154kts
10-May-23 06:15 40.689853 -74.309672 48 2013ft 151kts
10-May-23 06:16 40.714553 -74.265741 54 1999ft 146kts
10-May-23 06:17 40.741774 -74.224188 48 1714ft 151kts
10-May-23 06:18 40.769718 -74.183195 47 1500ft 146kts
10-May-23 06:19 40.796286 -74.144912 48 1515ft 134kts
10-May-23 06:20 40.816702 -74.114167 48 938ft 98kts
10-May-23 06:21 40.834659 -74.088238 46 440ft 94kts
10-May-23 06:22 40.853572 -74.061293 43 857ft 104kts
10-May-23 06:23 40.870947 -74.081276 295 2275ft 116kts
10-May-23 06:24 40.896425 -74.118819 252 2512ft 164kts
10-May-23 06:25 40.877827 -74.176529 247 2505ft 175kts
10-May-23 06:26 40.854375 -74.230431 227 2890ft 166kts
10-May-23 06:27 40.823013 -74.276045 227 3002ft 168kts
10-May-23 06:28 40.791470 -74.321861 227 3002ft 168kts
10-May-23 06:29 40.759993 -74.367543 225 3002ft 168kts
10-May-23 06:30 40.723072 -74.347976 127 2875ft 176kts
10-May-23 06:31 40.704556 -74.291414 66 2400ft 175kts
10-May-23 06:32 40.732170 -74.238503 47 1860ft 174kts
10-May-23 06:33 40.764554 -74.190514 48 1506ft 176kts
10-May-23 06:34 40.796527 -74.144150 50 1481ft 156kts
10-May-23 06:35 40.821361 -74.107597 48 777ft 103kts
10-May-23 06:36 40.839400 -74.081046 47 284ft 98kts
10-May-23 06:37 40.860246 -74.050790 26 1236ft 115kts
10-May-23 06:38 40.881381 -74.077855 294 2496ft 137kts
10-May-23 06:39 40.902520 -74.130238 269 2591ft 171kts
10-May-23 06:40 40.887438 -74.188468 247 2999ft 171kts
10-May-23 06:41 40.868612 -74.248729 247 3004ft 180kts
10-May-23 06:42 40.849471 -74.309867 247 3002ft 179kts
10-May-23 06:43 40.825814 -74.365755 201 3002ft 177kts
10-May-23 06:44 40.783207 -74.338446 143 2983ft 179kts
10-May-23 06:45 40.754049 -74.284697 119 2440ft 177kts
10-May-23 06:46 40.746774 -74.226223 63 1935ft 173kts
10-May-23 06:47 40.774390 -74.176207 45 1558ft 167kts
10-May-23 06:48 40.803171 -74.133702 48 1426ft 137kts
10-May-23 06:49 40.823369 -74.103830 46 764ft 99kts
10-May-23 06:50 40.842282 -74.076965 50 216ft 92kts
10-May-23 06:51 40.852328 -74.062622 340 12ft 11kts
10-May-23 06:52 40.854061 -74.065300 300 12ft 9kts
10-May-23 06:53 40.854521 -74.065350 105 12ft 0kts
10-May-23 06:54 40.854521 -74.065350 105 12ft 0kts

Navigation Log

Ident Type
Flight plan parsing failed, navigation log unavailable